Time;durP1;ratioP1;P1;durP2;ratioP2;P2;SDS_P1;SDS_P2;PMS_P1;PMS_P2;Temp;Humidity;BMP_temperature;BMP_pressure;BME280_temperature;BME280_humidity;BME280_pressure;Samples;Min_cycle;Max_cycle;Signal;HPM_P1;HPM_P2
2024/03/10 00:01:01;;;;;;;1.17;1.03;;;7.40;95.30;;;;;;2073173;28;20241;-75
2024/03/10 00:02:02;;;;;;;1.42;1.10;;;7.40;95.40;;;;;;2070292;28;20235;-76
2024/03/10 00:03:04;;;;;;;1.67;1.27;;;7.40;95.60;;;;;;2072097;28;20224;-76
2024/03/10 00:04:05;;;;;;;1.33;0.90;;;7.30;95.50;;;;;;2066734;28;20477;-77
2024/03/10 00:05:06;;;;;;;1.10;0.90;;;7.30;95.60;;;;;;2068503;28;20707;-77
2024/03/10 00:06:07;;;;;;;0.90;0.82;;;7.30;95.50;;;;;;2064730;28;20260;-77
2024/03/10 00:07:07;;;;;;;1.30;1.10;;;7.30;95.60;;;;;;2058896;28;20317;-79
2024/03/10 00:08:08;;;;;;;1.00;0.80;;;7.30;95.60;;;;;;2053597;28;20654;-77
2024/03/10 00:09:09;;;;;;;1.20;1.10;;;7.30;95.40;;;;;;2058375;28;20227;-75
2024/03/10 00:10:10;;;;;;;1.67;1.23;;;7.40;95.30;;;;;;2065659;28;20229;-75
2024/03/10 00:11:11;;;;;;;1.00;0.90;;;7.40;95.10;;;;;;2061489;28;20237;-75
2024/03/10 00:12:11;;;;;;;3.90;1.07;;;7.40;94.90;;;;;;2072817;28;20324;-75
2024/03/10 00:13:12;;;;;;;1.87;0.93;;;7.40;94.80;;;;;;2073471;28;20726;-75
2024/03/10 00:14:13;;;;;;;1.57;1.27;;;7.50;94.80;;;;;;2065031;28;20234;-75
2024/03/10 00:15:17;;;;;;;1.40;1.00;;;7.50;94.70;;;;;;2059026;28;20239;-76
2024/03/10 00:16:17;;;;;;;1.27;1.17;;;7.50;94.80;;;;;;2064785;28;20233;-75
2024/03/10 00:17:18;;;;;;;1.33;1.10;;;7.40;94.90;;;;;;2063884;28;20269;-75
2024/03/10 00:18:19;;;;;;;1.60;1.10;;;7.40;94.90;;;;;;2058023;28;20656;-78
2024/03/10 00:19:19;;;;;;;1.27;0.97;;;7.40;95.00;;;;;;2066381;28;20348;-75
2024/03/10 00:20:20;;;;;;;1.33;1.00;;;7.30;95.00;;;;;;2061511;28;20250;-76
2024/03/10 00:21:21;;;;;;;0.80;0.80;;;7.30;95.20;;;;;;2054165;28;20267;-76
2024/03/10 00:22:21;;;;;;;1.93;1.10;;;7.30;95.50;;;;;;2058507;28;20269;-76
2024/03/10 00:23:24;;;;;;;1.20;1.10;;;7.20;95.70;;;;;;2055218;28;20237;-76
2024/03/10 00:24:24;;;;;;;1.35;0.95;;;7.20;95.90;;;;;;2067927;28;20288;-75
2024/03/10 00:25:28;;;;;;;1.30;1.07;;;7.30;95.90;;;;;;2073885;28;20732;-76
2024/03/10 00:26:29;;;;;;;1.05;0.90;;;7.30;95.90;;;;;;2073787;28;20233;-75
2024/03/10 00:27:29;;;;;;;1.03;0.80;;;7.30;95.80;;;;;;2064538;28;20310;-76
2024/03/10 00:28:31;;;;;;;1.90;0.90;;;7.30;95.70;;;;;;2066943;28;20312;-75
2024/03/10 00:29:32;;;;;;;0.77;0.77;;;7.40;95.70;;;;;;2076547;28;20654;-77
2024/03/10 00:30:33;;;;;;;2.20;1.00;;;7.30;95.50;;;;;;2074374;28;20251;-76
2024/03/10 00:31:35;;;;;;;0.70;0.70;;;7.30;95.50;;;;;;2063093;28;20284;-77
2024/03/10 00:32:36;;;;;;;0.90;0.90;;;7.30;95.50;;;;;;2067400;28;20232;-77
2024/03/10 00:33:37;;;;;;;3.35;0.90;;;7.40;95.40;;;;;;2071602;28;20224;-77
2024/03/10 00:34:38;;;;;;;1.33;1.10;;;7.40;95.50;;;;;;2070075;28;20226;-77
2024/03/10 00:35:38;;;;;;;2.30;0.87;;;7.40;95.60;;;;;;2070259;28;20217;-77
2024/03/10 00:36:39;;;;;;;1.27;0.93;;;7.40;95.70;;;;;;2062680;28;20218;-76
2024/03/10 00:37:40;;;;;;;2.37;0.97;;;7.40;95.60;;;;;;2054603;28;20721;-75
2024/03/10 00:38:40;;;;;;;2.10;0.80;;;7.50;95.60;;;;;;2062336;28;20248;-76
2024/03/10 00:39:41;;;;;;;1.20;0.70;;;7.50;95.00;;;;;;2070973;28;20185;-76
2024/03/10 00:40:42;;;;;;;0.93;0.80;;;7.50;94.30;;;;;;2070971;28;20198;-77
2024/03/10 00:41:42;;;;;;;1.07;0.97;;;7.40;94.20;;;;;;2071394;28;20201;-76
2024/03/10 00:42:43;;;;;;;1.93;0.80;;;7.40;94.40;;;;;;2058056;28;20199;-76
2024/03/10 00:43:44;;;;;;;1.00;0.90;;;7.40;94.60;;;;;;2057767;28;20181;-77
2024/03/10 00:44:44;;;;;;;1.33;0.50;;;7.40;95.00;;;;;;2057840;28;20209;-78
2024/03/10 00:45:45;;;;;;;2.07;0.90;;;7.30;95.00;;;;;;2065873;28;20738;-77
2024/03/10 00:46:46;;;;;;;1.63;0.80;;;7.30;94.90;;;;;;2063270;28;20201;-77
2024/03/10 00:47:48;;;;;;;1.63;1.10;;;7.40;94.90;;;;;;2056318;28;20180;-76
2024/03/10 00:48:48;;;;;;;1.38;1.13;;;7.30;95.60;;;;;;2055567;28;20258;-75
2024/03/10 00:49:49;;;;;;;2.10;1.23;;;7.30;96.10;;;;;;2056500;28;20179;-76
2024/03/10 00:50:50;;;;;;;2.10;1.40;;;7.20;96.20;;;;;;2071300;28;20257;-76
2024/03/10 00:51:51;;;;;;;1.23;1.03;;;7.20;96.10;;;;;;2063353;28;20263;-76
2024/03/10 00:52:53;;;;;;;1.17;1.08;;;7.20;96.10;;;;;;2064052;28;20178;-77
2024/03/10 00:53:54;;;;;;;2.67;1.45;;;7.30;96.10;;;;;;2073250;28;20184;-76
2024/03/10 00:54:54;;;;;;;2.20;1.50;;;7.30;96.30;;;;;;2063789;28;20240;-76
2024/03/10 00:55:55;;;;;;;2.03;1.30;;;7.30;96.20;;;;;;2063976;28;20272;-77
2024/03/10 00:56:56;;;;;;;1.67;1.20;;;7.30;95.70;;;;;;2061995;28;20196;-76
2024/03/10 00:57:57;;;;;;;1.30;1.00;;;7.30;95.60;;;;;;2064251;28;20268;-77
2024/03/10 00:58:58;;;;;;;2.77;1.23;;;7.30;95.30;;;;;;2059308;28;20186;-77
2024/03/10 00:59:59;;;;;;;1.70;0.97;;;7.30;94.90;;;;;;2064562;28;20182;-76
2024/03/10 01:00:59;;;;;;;1.23;1.10;;;7.30;94.60;;;;;;2072610;28;20671;-77
2024/03/10 01:02:00;;;;;;;1.70;1.20;;;7.40;94.40;;;;;;2075908;28;20322;-75
2024/03/10 01:03:01;;;;;;;1.30;1.13;;;7.40;94.00;;;;;;2073527;28;20307;-77
2024/03/10 01:04:03;;;;;;;0.97;0.80;;;7.30;94.20;;;;;;2073343;28;20234;-75
2024/03/10 01:05:07;;;;;;;1.33;1.17;;;7.20;94.60;;;;;;2063593;28;20286;-75
2024/03/10 01:06:09;;;;;;;1.02;0.90;;;7.30;95.30;;;;;;2057916;28;20727;-75
2024/03/10 01:07:09;;;;;;;0.80;0.70;;;7.30;95.40;;;;;;2053271;28;20240;-75
2024/03/10 01:08:10;;;;;;;0.83;0.80;;;7.20;95.30;;;;;;2067032;28;20321;-75
2024/03/10 01:09:13;;;;;;;0.80;0.80;;;7.30;95.30;;;;;;2064388;28;20318;-75
2024/03/10 01:10:14;;;;;;;1.23;0.70;;;7.30;95.30;;;;;;2068346;28;20246;-75
2024/03/10 01:11:15;;;;;;;1.47;0.70;;;7.30;95.20;;;;;;2057973;28;20289;-75
2024/03/10 01:12:16;;;;;;;1.23;1.10;;;7.30;95.00;;;;;;2057791;28;20223;-75
2024/03/10 01:13:17;;;;;;;1.35;1.02;;;7.20;95.20;;;;;;2061219;28;20229;-75
2024/03/10 01:14:18;;;;;;;1.27;1.10;;;7.30;95.30;;;;;;2070908;28;20258;-76
2024/03/10 01:15:19;;;;;;;1.30;0.90;;;7.20;95.20;;;;;;2073667;28;20245;-76
2024/03/10 01:16:19;;;;;;;1.63;0.90;;;7.20;95.70;;;;;;2057998;28;20238;-76
2024/03/10 01:17:20;;;;;;;1.23;1.00;;;7.20;95.30;;;;;;2057547;28;20262;-77
2024/03/10 01:18:22;;;;;;;2.13;1.17;;;7.20;95.50;;;;;;2050234;28;20235;-77
2024/03/10 01:19:23;;;;;;;3.53;1.35;;;7.20;95.20;;;;;;2050953;28;20245;-76
2024/03/10 01:20:25;;;;;;;1.53;1.10;;;7.20;95.00;;;;;;2057725;28;20238;-76
2024/03/10 01:21:26;;;;;;;1.35;1.10;;;7.30;95.40;;;;;;2063921;28;20326;-76
2024/03/10 01:22:26;;;;;;;2.13;1.00;;;7.30;95.10;;;;;;2065731;28;20233;-76
2024/03/10 01:23:27;;;;;;;1.10;1.00;;;7.20;94.90;;;;;;2065916;28;20240;-76
2024/03/10 01:24:28;;;;;;;1.10;0.90;;;7.40;95.00;;;;;;2071317;28;20476;-76
2024/03/10 01:25:28;;;;;;;1.53;1.10;;;7.20;94.80;;;;;;2072807;28;20618;-77
2024/03/10 01:26:30;;;;;;;1.10;1.00;;;7.20;94.80;;;;;;2062130;28;20237;-77
2024/03/10 01:27:32;;;;;;;1.13;0.90;;;7.20;94.90;;;;;;2056871;28;20273;-76
2024/03/10 01:28:32;;;;;;;0.90;0.80;;;7.20;94.50;;;;;;2065006;28;20721;-77
2024/03/10 01:29:35;;;;;;;0.70;0.70;;;7.30;94.00;;;;;;2050407;28;20227;-75
2024/03/10 01:30:35;;;;;;;0.90;0.80;;;7.20;93.70;;;;;;2054229;28;20239;-77
2024/03/10 01:31:36;;;;;;;1.23;0.80;;;7.30;94.00;;;;;;2057959;28;20219;-76
2024/03/10 01:32:37;;;;;;;1.07;0.77;;;7.20;94.00;;;;;;2055211;28;20218;-75
2024/03/10 01:33:37;;;;;;;1.10;1.00;;;7.30;93.70;;;;;;2073982;28;20290;-75
2024/03/10 01:34:38;;;;;;;1.70;0.70;;;7.30;93.70;;;;;;2065248;28;20232;-76
2024/03/10 01:35:42;;;;;;;1.13;0.80;;;7.30;93.50;;;;;;2065760;28;20210;-76
2024/03/10 01:36:42;;;;;;;7.53;1.05;;;7.30;93.40;;;;;;2061752;28;20218;-77
2024/03/10 01:37:43;;;;;;;0.77;0.60;;;7.30;93.20;;;;;;2056090;28;20569;-76
2024/03/10 01:38:44;;;;;;;0.80;0.60;;;7.30;92.90;;;;;;2057369;28;20199;-76
2024/03/10 01:39:44;;;;;;;0.70;0.60;;;7.30;93.00;;;;;;2049636;28;20211;-75
2024/03/10 01:40:45;;;;;;;1.20;0.70;;;7.30;93.00;;;;;;2055087;28;20199;-76
2024/03/10 01:41:46;;;;;;;0.60;0.60;;;7.30;93.40;;;;;;2071261;28;20186;-76
2024/03/10 01:42:54;;;;;;;1.40;0.73;;;7.30;92.80;;;;;;2071884;28;20281;-75
2024/03/10 01:43:55;;;;;;;0.63;0.60;;;7.40;92.50;;;;;;2062450;28;20189;-76
2024/03/10 01:44:56;;;;;;;2.07;0.60;;;7.40;92.10;;;;;;2058832;28;20588;-76
2024/03/10 01:46:08;;;;;;;1.15;0.80;;;7.40;92.00;;;;;;2060103;28;20252;-76
2024/03/10 01:47:09;;;;;;;2.45;0.73;;;7.50;92.80;;;;;;2065652;28;20237;-76
2024/03/10 01:48:11;;;;;;;0.80;0.70;;;7.40;93.00;;;;;;2064148;28;20236;-77
2024/03/10 01:49:11;;;;;;;2.85;0.80;;;7.50;93.60;;;;;;2054790;28;20238;-77
2024/03/10 01:50:12;;;;;;;0.60;0.60;;;7.40;93.30;;;;;;2063806;28;20234;-76
2024/03/10 01:51:13;;;;;;;0.70;0.70;;;7.50;92.10;;;;;;2055387;28;20230;-76
2024/03/10 01:52:14;;;;;;;0.50;0.50;;;7.40;92.30;;;;;;2055923;28;20711;-76
2024/03/10 01:53:15;;;;;;;0.65;0.63;;;7.40;92.40;;;;;;2065811;28;20238;-76
2024/03/10 01:54:18;;;;;;;1.43;0.67;;;7.40;92.20;;;;;;2062188;28;20233;-77
2024/03/10 01:55:19;;;;;;;0.77;0.73;;;7.40;92.40;;;;;;2060556;28;20234;-76
2024/03/10 01:56:20;;;;;;;1.17;0.80;;;7.40;92.60;;;;;;2064575;28;20266;-77
2024/03/10 01:57:21;;;;;;;0.63;0.57;;;7.30;92.70;;;;;;2068992;28;20281;-75
2024/03/10 01:58:22;;;;;;;1.25;0.77;;;7.20;93.10;;;;;;2055731;28;20635;-76
2024/03/10 01:59:23;;;;;;;1.47;0.90;;;7.10;93.20;;;;;;2057707;28;20241;-76
2024/03/10 02:00:24;;;;;;;0.88;0.80;;;7.10;93.40;;;;;;2056785;28;20830;-76
2024/03/10 02:01:27;;;;;;;1.07;0.77;;;7.10;93.40;;;;;;2060992;28;20305;-75
2024/03/10 02:02:28;;;;;;;1.10;0.88;;;7.00;93.50;;;;;;2055428;28;20234;-75
2024/03/10 02:03:30;;;;;;;1.00;0.90;;;7.00;93.70;;;;;;2048314;28;20241;-75
2024/03/10 02:04:31;;;;;;;0.85;0.85;;;7.00;94.10;;;;;;2058891;28;20606;-75
2024/03/10 02:05:32;;;;;;;1.10;1.00;;;7.00;94.20;;;;;;2064345;28;20238;-75
2024/03/10 02:06:33;;;;;;;1.30;0.97;;;7.00;94.50;;;;;;2068043;28;20665;-75
2024/03/10 02:07:34;;;;;;;1.40;1.00;;;7.10;94.70;;;;;;2057195;28;20286;-75
2024/03/10 02:08:36;;;;;;;1.17;1.00;;;7.00;94.70;;;;;;2066817;28;20273;-75
2024/03/10 02:09:37;;;;;;;0.88;0.77;;;7.00;94.70;;;;;;2062918;28;20233;-75
2024/03/10 02:10:38;;;;;;;1.63;1.10;;;6.90;94.40;;;;;;2057021;28;20688;-76
2024/03/10 02:11:39;;;;;;;1.57;1.00;;;6.90;94.60;;;;;;2061204;28;20218;-75
2024/03/10 02:12:40;;;;;;;1.10;1.00;;;6.80;94.50;;;;;;2058769;28;20687;-75
2024/03/10 02:13:40;;;;;;;0.80;0.80;;;6.80;94.70;;;;;;2054939;28;20225;-74
2024/03/10 02:14:41;;;;;;;1.87;0.90;;;6.80;95.20;;;;;;2076588;28;20212;-74
2024/03/10 02:16:00;;;;;;;1.00;0.80;;;6.80;95.20;;;;;;2065784;28;20240;-75
2024/03/10 02:17:01;;;;;;;1.30;0.70;;;6.70;95.20;;;;;;2066331;28;20961;-75
2024/03/10 02:18:01;;;;;;;1.50;0.87;;;6.70;94.90;;;;;;2067142;28;20241;-75
2024/03/10 02:19:02;;;;;;;1.10;0.80;;;6.70;94.50;;;;;;2068903;28;20253;-75
2024/03/10 02:20:14;;;;;;;0.90;0.80;;;6.80;94.10;;;;;;2058679;28;20316;-75
2024/03/10 02:21:18;;;;;;;0.82;0.70;;;6.80;93.70;;;;;;2056234;28;20234;-75
2024/03/10 02:22:22;;;;;;;0.82;0.80;;;6.80;93.40;;;;;;2057196;28;20230;-76
2024/03/10 02:23:30;;;;;;;0.70;0.70;;;6.80;93.20;;;;;;2066562;28;20225;-76
2024/03/10 02:24:33;;;;;;;1.10;0.80;;;6.70;93.00;;;;;;2060209;28;20309;-75
2024/03/10 02:25:41;;;;;;;1.45;0.98;;;6.80;92.90;;;;;;2054772;28;20220;-75
2024/03/10 02:26:46;;;;;;;1.00;0.70;;;6.80;92.60;;;;;;2060682;28;20246;-77
2024/03/10 02:27:49;;;;;;;1.63;1.00;;;6.80;93.20;;;;;;2066387;28;20519;-74
2024/03/10 02:28:57;;;;;;;1.00;0.90;;;6.70;93.70;;;;;;2063310;28;20552;-75
2024/03/10 02:30:18;;;;;;;0.95;0.80;;;6.70;93.40;;;;;;2067018;28;20182;-75
2024/03/10 02:47:30;;;;;;;1.38;0.90;;;6.30;93.60;;;;;;2070494;28;20237;-77
2024/03/10 02:48:31;;;;;;;1.17;0.70;;;6.20;93.40;;;;;;2073766;28;20233;-76
2024/03/10 02:49:32;;;;;;;1.92;1.00;;;6.20;93.40;;;;;;2067458;28;20230;-77
2024/03/10 02:50:34;;;;;;;0.97;0.83;;;6.10;93.50;;;;;;2065459;28;20877;-75
2024/03/10 02:51:36;;;;;;;1.25;0.80;;;6.10;93.50;;;;;;2066831;28;20226;-78
2024/03/10 02:52:37;;;;;;;1.75;0.90;;;6.10;93.60;;;;;;2059180;28;20249;-77
2024/03/10 02:53:38;;;;;;;1.80;0.90;;;6.10;92.80;;;;;;2058227;28;20221;-75
2024/03/10 02:54:39;;;;;;;1.07;0.77;;;6.10;92.50;;;;;;2056320;28;20679;-77
2024/03/10 02:55:40;;;;;;;1.42;1.08;;;6.10;92.00;;;;;;2055657;28;20220;-78
2024/03/10 02:56:41;;;;;;;2.07;0.80;;;6.10;92.00;;;;;;2066942;28;20182;-77
2024/03/10 02:57:41;;;;;;;1.53;1.00;;;6.10;92.40;;;;;;2065981;28;20177;-77
2024/03/10 02:58:42;;;;;;;1.00;0.90;;;6.10;92.20;;;;;;2065963;28;20582;-77
2024/03/10 02:59:43;;;;;;;2.17;0.70;;;6.00;92.60;;;;;;2064678;28;20256;-76
2024/03/10 03:00:43;;;;;;;1.33;0.70;;;5.90;92.90;;;;;;2066242;28;20206;-77
2024/03/10 03:01:44;;;;;;;1.93;0.97;;;5.80;93.30;;;;;;2052693;28;20595;-77
2024/03/10 03:02:45;;;;;;;0.83;0.83;;;5.70;93.30;;;;;;2045724;28;20215;-76
2024/03/10 03:03:45;;;;;;;1.03;0.90;;;5.80;93.90;;;;;;2053327;28;20179;-76
2024/03/10 03:04:46;;;;;;;1.00;0.80;;;5.70;93.90;;;;;;2061986;28;20182;-76
2024/03/10 03:05:48;;;;;;;1.00;0.70;;;5.60;94.00;;;;;;2066614;28;20256;-76
2024/03/10 03:06:48;;;;;;;1.10;1.00;;;5.50;94.10;;;;;;2070670;28;20185;-76
2024/03/10 03:07:49;;;;;;;1.33;1.10;;;5.50;94.30;;;;;;2073368;28;20540;-77
2024/03/10 03:08:50;;;;;;;2.27;1.07;;;5.40;94.40;;;;;;2071573;28;20182;-76
2024/03/10 03:09:51;;;;;;;0.80;0.80;;;5.50;94.90;;;;;;2065472;28;20176;-78
2024/03/10 03:10:51;;;;;;;1.40;0.83;;;5.40;94.90;;;;;;2069909;28;20193;-77
2024/03/10 03:11:52;;;;;;;1.30;0.90;;;5.40;94.90;;;;;;2059074;28;20183;-76
2024/03/10 03:12:53;;;;;;;1.40;0.83;;;5.40;94.70;;;;;;2049593;28;20184;-77
2024/03/10 03:13:53;;;;;;;1.20;1.00;;;5.40;94.50;;;;;;2066657;28;20178;-76
2024/03/10 03:14:54;;;;;;;1.00;0.80;;;5.40;94.50;;;;;;2073992;28;20439;-77
2024/03/10 03:15:58;;;;;;;2.07;1.10;;;5.40;94.40;;;;;;2058347;28;20183;-78
2024/03/10 03:16:58;;;;;;;1.35;1.00;;;5.40;94.30;;;;;;2055814;28;20522;-76
2024/03/10 03:17:59;;;;;;;1.73;0.93;;;5.40;94.20;;;;;;2054586;28;20240;-76
2024/03/10 03:19:00;;;;;;;0.80;0.77;;;5.40;94.10;;;;;;2065646;28;21852;-76
2024/03/10 03:20:01;;;;;;;1.83;1.10;;;5.50;93.90;;;;;;2062892;28;20234;-76
2024/03/10 03:21:01;;;;;;;1.13;0.90;;;5.50;93.70;;;;;;2055609;28;20325;-76
2024/03/10 03:22:06;;;;;;;1.00;0.80;;;5.50;93.70;;;;;;2049824;28;20227;-75
2024/03/10 03:23:07;;;;;;;1.85;1.00;;;5.50;93.40;;;;;;2055866;28;20234;-77
2024/03/10 03:24:08;;;;;;;2.13;1.27;;;5.50;93.20;;;;;;2053925;28;20235;-76
2024/03/10 03:25:11;;;;;;;1.53;1.20;;;5.50;93.20;;;;;;2050036;28;20231;-77
2024/03/10 03:26:14;;;;;;;1.23;0.90;;;5.50;93.20;;;;;;2055696;28;20222;-77
2024/03/10 03:27:14;;;;;;;1.45;0.95;;;5.50;93.20;;;;;;2058500;28;20230;-77
2024/03/10 03:28:17;;;;;;;1.60;1.20;;;5.50;93.50;;;;;;2056119;28;20340;-76
2024/03/10 03:29:19;;;;;;;1.83;0.98;;;5.50;93.80;;;;;;2059495;28;20230;-76
2024/03/10 03:30:22;;;;;;;1.08;0.98;;;5.40;94.00;;;;;;2052849;28;20258;-77
2024/03/10 03:31:22;;;;;;;1.20;1.02;;;5.40;93.90;;;;;;2055219;28;20361;-76
2024/03/10 03:32:23;;;;;;;3.00;1.20;;;5.40;94.00;;;;;;2063550;28;20884;-77
2024/03/10 03:33:24;;;;;;;3.30;1.47;;;5.40;93.80;;;;;;2062281;28;20229;-77
2024/03/10 03:34:24;;;;;;;0.80;0.80;;;5.30;94.00;;;;;;2049556;28;20281;-77
2024/03/10 03:35:25;;;;;;;2.20;0.87;;;5.30;94.10;;;;;;2053671;28;20294;-76
2024/03/10 03:36:26;;;;;;;1.10;1.00;;;5.20;94.30;;;;;;2063840;28;20256;-77
2024/03/10 03:37:27;;;;;;;1.37;0.80;;;5.20;94.60;;;;;;2065627;28;20270;-76
2024/03/10 03:38:27;;;;;;;1.90;0.90;;;5.20;94.70;;;;;;2073153;28;20615;-76
2024/03/10 03:39:28;;;;;;;1.67;1.10;;;5.20;94.90;;;;;;2072819;28;20225;-77
2024/03/10 03:40:29;;;;;;;1.33;0.97;;;5.20;95.00;;;;;;2069388;28;20241;-77
2024/03/10 03:41:30;;;;;;;1.50;1.25;;;5.20;95.00;;;;;;2065445;28;20226;-76
2024/03/10 03:42:31;;;;;;;1.90;1.30;;;5.20;94.90;;;;;;2048754;28;20319;-76
2024/03/10 03:43:31;;;;;;;3.00;1.23;;;5.20;95.00;;;;;;2057462;28;20290;-76
2024/03/10 03:44:33;;;;;;;0.80;0.80;;;5.20;95.00;;;;;;2057182;28;20249;-75
2024/03/10 03:45:33;;;;;;;4.88;1.33;;;5.20;95.40;;;;;;2050379;28;20267;-77
2024/03/10 03:46:34;;;;;;;1.57;0.80;;;5.20;94.90;;;;;;2055237;28;20285;-77
2024/03/10 03:47:35;;;;;;;1.48;1.17;;;5.10;95.40;;;;;;2055800;28;20570;-76
2024/03/10 03:48:36;;;;;;;1.40;1.10;;;5.10;94.90;;;;;;2058138;28;20285;-78
2024/03/10 03:49:38;;;;;;;1.85;1.10;;;5.20;94.70;;;;;;2050014;28;20222;-77
2024/03/10 03:50:39;;;;;;;1.52;1.00;;;5.10;94.10;;;;;;2049847;28;20227;-76
2024/03/10 03:51:43;;;;;;;1.08;0.95;;;5.10;94.00;;;;;;2061790;28;20280;-77
2024/03/10 03:52:44;;;;;;;2.08;1.17;;;5.00;94.20;;;;;;2075009;28;20624;-77
2024/03/10 03:53:44;;;;;;;0.80;0.80;;;5.10;94.10;;;;;;2064935;28;20197;-76
2024/03/10 03:54:45;;;;;;;0.90;0.77;;;5.10;94.10;;;;;;2056687;28;20217;-75
2024/03/10 03:55:46;;;;;;;2.37;1.10;;;5.10;94.20;;;;;;2056957;28;20182;-76
2024/03/10 03:56:47;;;;;;;1.27;1.00;;;5.10;94.40;;;;;;2057025;28;20186;-77
2024/03/10 03:57:47;;;;;;;1.20;0.90;;;5.10;94.20;;;;;;2046018;28;20199;-76
2024/03/10 03:58:49;;;;;;;1.07;0.97;;;5.10;94.30;;;;;;2052798;28;20270;-77
2024/03/10 03:59:50;;;;;;;1.77;1.02;;;5.10;94.40;;;;;;2062970;28;20232;-77
2024/03/10 04:00:51;;;;;;;1.20;1.05;;;5.10;94.40;;;;;;2063162;28;20564;-76
2024/03/10 04:01:52;;;;;;;1.60;1.13;;;5.10;93.90;;;;;;2060917;28;20274;-77
2024/03/10 04:02:53;;;;;;;1.00;0.90;;;5.10;94.10;;;;;;2066594;28;20181;-77
2024/03/10 04:03:54;;;;;;;1.27;1.10;;;5.00;94.20;;;;;;2070294;28;20192;-76
2024/03/10 04:04:55;;;;;;;1.15;1.00;;;5.00;94.70;;;;;;2067459;28;20179;-77
2024/03/10 04:05:56;;;;;;;3.90;1.30;;;5.00;95.10;;;;;;2067617;28;20206;-77
2024/03/10 04:06:57;;;;;;;1.23;0.90;;;5.00;95.40;;;;;;2057581;28;20183;-77
2024/03/10 04:07:57;;;;;;;0.80;0.80;;;4.90;95.50;;;;;;2065414;28;20557;-78
2024/03/10 04:08:58;;;;;;;1.83;1.30;;;4.90;95.60;;;;;;2059302;28;20183;-76
2024/03/10 04:09:59;;;;;;;1.33;0.93;;;4.90;95.50;;;;;;2047260;28;20187;-76
2024/03/10 04:10:59;;;;;;;1.00;0.90;;;4.90;95.50;;;;;;2051890;28;20238;-76
2024/03/10 04:12:00;;;;;;;1.27;1.00;;;5.00;95.40;;;;;;2058220;28;20303;-76
2024/03/10 04:13:06;;;;;;;1.33;1.20;;;5.00;95.20;;;;;;2057431;28;20313;-77
2024/03/10 04:14:07;;;;;;;1.27;0.90;;;5.10;95.30;;;;;;2062360;28;20315;-76
2024/03/10 04:15:09;;;;;;;0.82;0.82;;;5.10;94.60;;;;;;2065867;28;20264;-77
2024/03/10 04:16:09;;;;;;;1.13;0.82;;;5.10;95.20;;;;;;2057372;28;20303;-76
2024/03/10 04:17:10;;;;;;;1.20;0.90;;;5.00;95.40;;;;;;2058147;28;20775;-77
2024/03/10 04:18:11;;;;;;;1.63;1.10;;;5.00;95.30;;;;;;2058592;28;20238;-77
2024/03/10 04:19:12;;;;;;;1.93;1.20;;;4.90;95.40;;;;;;2063510;28;20229;-76
2024/03/10 04:20:13;;;;;;;2.95;1.48;;;5.00;95.70;;;;;;2064238;28;20237;-76
2024/03/10 04:21:14;;;;;;;1.88;1.20;;;5.00;95.80;;;;;;2056798;28;20246;-77
2024/03/10 04:22:14;;;;;;;1.33;0.90;;;5.00;96.20;;;;;;2062722;28;20323;-77
2024/03/10 04:23:16;;;;;;;2.00;1.37;;;5.00;95.60;;;;;;2066160;28;20240;-78
2024/03/10 04:24:18;;;;;;;1.77;1.00;;;4.90;96.00;;;;;;2062308;28;20236;-77
2024/03/10 04:25:18;;;;;;;2.15;1.48;;;4.80;96.50;;;;;;2055884;28;20364;-77
2024/03/10 04:26:21;;;;;;;1.57;1.20;;;4.80;96.10;;;;;;2057018;28;20293;-77
2024/03/10 04:27:23;;;;;;;2.40;1.02;;;4.70;96.30;;;;;;2064956;28;20238;-77
2024/03/10 04:28:24;;;;;;;1.48;1.20;;;4.70;96.60;;;;;;2056538;28;20273;-76
2024/03/10 04:29:25;;;;;;;1.30;1.17;;;4.70;96.50;;;;;;2065198;28;20236;-77
2024/03/10 04:30:26;;;;;;;1.20;1.07;;;4.80;96.70;;;;;;2064164;28;20236;-77
2024/03/10 04:31:26;;;;;;;1.55;1.30;;;4.70;96.70;;;;;;2063418;28;20301;-77
2024/03/10 04:32:29;;;;;;;1.47;1.10;;;4.60;97.00;;;;;;2072006;28;20703;-78
2024/03/10 04:33:30;;;;;;;2.15;1.30;;;4.60;97.30;;;;;;2062586;28;20233;-77
2024/03/10 04:34:31;;;;;;;2.07;1.23;;;4.50;97.20;;;;;;2070958;28;20248;-77
2024/03/10 04:35:32;;;;;;;1.42;1.20;;;4.60;97.50;;;;;;2071048;28;20269;-76
2024/03/10 04:36:33;;;;;;;1.30;1.20;;;4.50;97.70;;;;;;2061485;28;20282;-77
2024/03/10 04:37:34;;;;;;;1.75;1.23;;;4.40;97.60;;;;;;2064206;28;20237;-77
2024/03/10 04:38:35;;;;;;;1.10;1.00;;;4.40;97.50;;;;;;2066118;28;20237;-77
2024/03/10 04:39:35;;;;;;;1.83;0.90;;;4.40;97.20;;;;;;2057589;28;20222;-77
2024/03/10 04:40:36;;;;;;;1.57;1.17;;;4.40;97.00;;;;;;2065035;28;20586;-77
2024/03/10 04:41:37;;;;;;;1.37;1.17;;;4.40;96.90;;;;;;2064880;28;20226;-76
2024/03/10 04:42:38;;;;;;;1.38;1.10;;;4.30;96.80;;;;;;2057161;28;20229;-76
2024/03/10 04:43:39;;;;;;;4.40;1.60;;;4.40;97.00;;;;;;2051788;28;20225;-77
2024/03/10 04:44:39;;;;;;;1.70;1.30;;;4.40;97.40;;;;;;2063722;28;20229;-76
2024/03/10 04:45:40;;;;;;;1.50;1.23;;;4.40;97.20;;;;;;2063267;28;20668;-77
2024/03/10 04:46:41;;;;;;;2.30;1.27;;;4.30;97.00;;;;;;2071565;28;20191;-76
2024/03/10 04:47:42;;;;;;;1.60;1.10;;;4.30;97.50;;;;;;2055330;28;20178;-76
2024/03/10 04:48:42;;;;;;;1.97;1.30;;;4.20;97.60;;;;;;2056860;28;20213;-76
2024/03/10 04:49:43;;;;;;;2.70;1.47;;;4.30;97.80;;;;;;2061580;28;20185;-76
2024/03/10 04:50:44;;;;;;;3.07;1.10;;;4.30;97.60;;;;;;2057019;28;20683;-75
2024/03/10 04:51:44;;;;;;;2.53;1.27;;;4.20;97.50;;;;;;2063470;28;20208;-77
2024/03/10 04:52:45;;;;;;;2.70;1.00;;;4.30;97.50;;;;;;2060637;28;20185;-77
2024/03/10 04:53:46;;;;;;;3.83;1.30;;;4.20;97.50;;;;;;2051447;28;20720;-78
2024/03/10 04:54:47;;;;;;;1.10;0.90;;;4.30;97.50;;;;;;2046267;28;20216;-77
2024/03/10 04:55:48;;;;;;;1.37;1.10;;;4.20;97.50;;;;;;2048613;28;20270;-77
2024/03/10 04:56:49;;;;;;;1.08;0.98;;;4.20;97.50;;;;;;2059752;28;20214;-77
2024/03/10 04:57:50;;;;;;;1.50;1.30;;;4.30;97.50;;;;;;2069098;28;20190;-77
2024/03/10 04:58:50;;;;;;;1.50;1.20;;;4.30;97.40;;;;;;2064679;28;20352;-77
2024/03/10 04:59:51;;;;;;;1.67;1.20;;;4.30;98.00;;;;;;2048851;28;20215;-77
2024/03/10 05:00:52;;;;;;;1.30;1.00;;;4.30;97.80;;;;;;2048682;28;20210;-76
2024/03/10 05:01:56;;;;;;;1.53;1.10;;;4.30;97.90;;;;;;2063478;28;20597;-77
2024/03/10 05:02:57;;;;;;;1.33;1.13;;;4.30;98.20;;;;;;2055711;28;20189;-76
2024/03/10 05:03:59;;;;;;;1.50;1.20;;;4.30;98.10;;;;;;2062635;28;20195;-77
2024/03/10 05:05:04;;;;;;;1.73;1.13;;;4.20;98.00;;;;;;2069822;28;21604;-77
2024/03/10 05:06:06;;;;;;;1.67;1.00;;;4.20;97.90;;;;;;2057423;28;20238;-77
2024/03/10 05:07:07;;;;;;;1.35;1.00;;;4.30;97.80;;;;;;2062389;28;20226;-77
2024/03/10 05:08:08;;;;;;;1.40;1.00;;;4.20;97.50;;;;;;2064500;28;20270;-77
2024/03/10 05:09:09;;;;;;;1.20;1.02;;;4.30;97.60;;;;;;2052205;28;20229;-77
2024/03/10 05:10:10;;;;;;;1.30;1.13;;;4.30;97.50;;;;;;2049147;28;20316;-77
2024/03/10 05:11:10;;;;;;;1.20;1.00;;;4.30;97.50;;;;;;2053703;28;20249;-77
2024/03/10 05:12:12;;;;;;;1.27;1.00;;;4.30;97.40;;;;;;2070909;28;20221;-77
2024/03/10 05:13:13;;;;;;;1.65;1.10;;;4.30;97.30;;;;;;2058082;28;20697;-77
2024/03/10 05:14:14;;;;;;;1.20;1.10;;;4.30;97.70;;;;;;2049266;28;20792;-78
2024/03/10 05:15:15;;;;;;;1.00;0.90;;;4.20;98.00;;;;;;2065330;28;20248;-78
2024/03/10 05:16:17;;;;;;;1.52;1.10;;;4.20;98.40;;;;;;2068944;28;20226;-77
2024/03/10 05:17:17;;;;;;;1.70;1.10;;;4.20;98.40;;;;;;2062454;28;20225;-77
2024/03/10 05:18:18;;;;;;;1.40;1.00;;;4.10;98.50;;;;;;2069924;28;20623;-76
2024/03/10 05:19:19;;;;;;;1.90;1.30;;;4.10;98.70;;;;;;2061875;28;20251;-77
2024/03/10 05:20:21;;;;;;;1.70;1.27;;;4.10;98.60;;;;;;2062444;28;20236;-77
2024/03/10 05:21:25;;;;;;;1.25;0.95;;;4.00;98.70;;;;;;2054993;28;20238;-78
2024/03/10 05:22:26;;;;;;;1.10;1.00;;;3.90;98.90;;;;;;2050820;28;20234;-75
2024/03/10 05:23:27;;;;;;;1.40;1.07;;;3.90;99.10;;;;;;2054634;28;20244;-77
2024/03/10 05:24:28;;;;;;;2.83;1.63;;;3.90;99.20;;;;;;2071286;28;20263;-76
2024/03/10 05:25:29;;;;;;;3.27;1.60;;;3.90;99.20;;;;;;2062548;28;20307;-77
2024/03/10 05:26:30;;;;;;;1.60;1.33;;;4.00;99.20;;;;;;2049437;28;20237;-76
2024/03/10 05:27:31;;;;;;;1.47;1.30;;;4.00;99.10;;;;;;2057517;28;20311;-77
2024/03/10 05:28:32;;;;;;;1.93;1.23;;;4.00;99.10;;;;;;2056230;28;20385;-76
2024/03/10 05:29:32;;;;;;;1.58;1.20;;;4.10;98.90;;;;;;2057261;28;20244;-77
2024/03/10 05:30:33;;;;;;;1.93;1.60;;;4.10;98.80;;;;;;2065666;28;20668;-77
2024/03/10 05:31:34;;;;;;;1.40;1.20;;;4.10;98.80;;;;;;2066235;28;20233;-77
2024/03/10 05:32:35;;;;;;;2.15;1.45;;;4.10;98.70;;;;;;2056787;28;20243;-77
2024/03/10 05:33:36;;;;;;;1.42;1.30;;;4.10;98.80;;;;;;2047346;28;20234;-77
2024/03/10 05:34:37;;;;;;;2.40;1.10;;;4.10;99.10;;;;;;2064746;28;20250;-76
2024/03/10 05:35:37;;;;;;;1.53;1.40;;;4.10;99.10;;;;;;2071611;28;20356;-78
2024/03/10 05:36:38;;;;;;;2.00;1.70;;;4.20;98.90;;;;;;2072050;28;20222;-77
2024/03/10 05:37:41;;;;;;;1.97;1.70;;;4.10;98.80;;;;;;2065349;28;20229;-77
2024/03/10 05:38:41;;;;;;;2.80;1.60;;;4.10;99.00;;;;;;2070911;28;20300;-75
2024/03/10 05:39:42;;;;;;;2.27;1.50;;;4.10;99.00;;;;;;2066143;28;20187;-78
2024/03/10 05:40:43;;;;;;;1.60;1.50;;;4.10;99.00;;;;;;2059386;28;21588;-76